Terminal Aerodrome Forecast
Issued by NWS

Home | Current Version | Previous Version | Text Only | Print | Product List | Glossary On
Versions: 1 2 3 4 5 6 7 8 9 10 11 12 13 14 15 16 17 18 19 20
000
FTUS45 KBYZ 220522
TAFLVM
TAF
KLVM 220522Z 2206/2306 27022G35KT P6SM SKC
     FM220900 24033G45KT P6SM VCSH BKN070
     FM221300 22014G30KT 4SM -SN BR SCT025 BKN050
     FM222200 27014G22KT P6SM VCSH BKN070=

USA.gov is the U.S. government's official web portal to all federal, state and local government web resources and services.